Time;durP1;ratioP1;P1;durP2;ratioP2;P2;SDS_P1;SDS_P2;PMS_P1;PMS_P2;Temp;Humidity;BMP_temperature;BMP_pressure;BME280_temperature;BME280_humidity;BME280_pressure;Samples;Min_cycle;Max_cycle;Signal;HPM_P1;HPM_P2
2023/08/29 04:22:32;;;;;;;12.07;7.95;;;;;;;13.66;100.00;99625.97;5109828;27;20517;-68
2023/08/29 04:24:58;;;;;;;11.93;8.48;;;;;;;13.66;100.00;99618.75;5109905;28;20036;-66
2023/08/29 04:27:23;;;;;;;11.35;7.70;;;;;;;13.69;100.00;99615.69;5108460;28;20043;-66
2023/08/29 04:29:48;;;;;;;11.13;7.70;;;;;;;13.70;100.00;99616.50;5109335;28;20500;-67
2023/08/29 04:32:14;;;;;;;10.73;7.72;;;;;;;13.71;100.00;99623.50;5108313;28;20036;-67
2023/08/29 04:34:39;;;;;;;10.77;7.40;;;;;;;13.68;100.00;99619.38;5109698;28;20032;-67
2023/08/29 04:37:05;;;;;;;12.65;7.78;;;;;;;13.68;100.00;99621.22;5107973;28;20402;-67
2023/08/29 04:39:30;;;;;;;11.95;8.02;;;;;;;13.67;100.00;99614.22;5111102;28;20043;-67
2023/08/29 04:41:56;;;;;;;10.20;7.70;;;;;;;13.66;100.00;99613.41;5108034;28;20043;-67
2023/08/29 04:44:21;;;;;;;10.50;7.38;;;;;;;13.65;100.00;99609.09;5108072;28;20494;-67
2023/08/29 04:46:47;;;;;;;10.65;7.82;;;;;;;13.68;100.00;99616.69;5096703;28;20035;-68
2023/08/29 04:49:12;;;;;;;10.00;7.82;;;;;;;13.67;100.00;99619.59;5108994;28;20036;-69
2023/08/29 04:51:37;;;;;;;9.07;7.03;;;;;;;13.68;100.00;99621.22;5107941;28;20032;-68
2023/08/29 04:54:03;;;;;;;11.15;7.82;;;;;;;13.65;100.00;99609.09;5113572;28;20047;-69
2023/08/29 04:56:28;;;;;;;12.07;8.13;;;;;;;13.66;100.00;99616.09;5128362;28;20034;-68
2023/08/29 04:58:55;;;;;;;12.82;7.55;;;;;;;13.65;100.00;99619.78;5128079;28;20184;-69
2023/08/29 05:01:21;;;;;;;10.55;7.85;;;;;;;13.69;100.00;99625.53;5129410;28;20134;-69
2023/08/29 05:03:47;;;;;;;11.13;7.97;;;;;;;13.71;100.00;99621.63;5128438;27;20035;-69
2023/08/29 05:06:12;;;;;;;12.75;7.95;;;;;;;13.72;100.00;99617.09;5129434;27;20035;-69
2023/08/29 05:08:38;;;;;;;9.55;7.30;;;;;;;13.70;100.00;99620.00;5128184;27;20031;-69
2023/08/29 05:11:04;;;;;;;10.15;7.25;;;;;;;13.71;100.00;99616.28;5127836;27;20040;-69
2023/08/29 05:13:30;;;;;;;11.60;7.75;;;;;;;13.71;100.00;99616.28;5128069;28;20122;-69
2023/08/29 05:15:55;;;;;;;10.43;7.13;;;;;;;13.71;100.00;99623.50;5127832;28;20092;-69
2023/08/29 05:18:20;;;;;;;9.55;7.30;;;;;;;13.73;100.00;99619.56;5129256;28;20043;-68
2023/08/29 05:20:46;;;;;;;12.68;7.65;;;;;;;13.71;100.00;99620.81;5127493;28;20039;-68
2023/08/29 05:23:12;;;;;;;8.65;7.40;;;;;;;13.69;100.00;99618.34;5127877;28;20501;-69
2023/08/29 05:25:37;;;;;;;9.88;7.15;;;;;;;13.72;100.00;99615.25;5129158;27;20402;-69
2023/08/29 05:28:03;;;;;;;11.13;7.20;;;;;;;13.72;100.00;99609.06;5129031;28;20035;-68
2023/08/29 05:30:30;;;;;;;9.60;7.47;;;;;;;13.73;100.00;99616.06;5128776;27;20102;-69
2023/08/29 05:32:55;;;;;;;9.85;7.40;;;;;;;13.73;100.00;99616.88;5120861;27;20042;-69
2023/08/29 05:35:21;;;;;;;13.48;7.95;;;;;;;13.72;100.00;99615.25;5115324;28;20047;-68
2023/08/29 05:37:46;;;;;;;10.55;7.22;;;;;;;13.74;100.00;99618.53;5115316;28;20039;-69
2023/08/29 05:40:11;;;;;;;8.85;7.20;;;;;;;13.74;100.00;99617.72;5114870;28;20416;-69
2023/08/29 05:42:37;;;;;;;10.93;8.05;;;;;;;13.75;100.00;99620.19;5115136;28;20042;-68
2023/08/29 05:45:03;;;;;;;9.45;7.85;;;;;;;13.78;100.00;99619.78;5114973;28;20040;-68
2023/08/29 05:47:28;;;;;;;11.63;7.45;;;;;;;13.80;100.00;99625.72;5115080;28;20027;-69
2023/08/29 05:49:54;;;;;;;9.25;7.25;;;;;;;13.82;100.00;99625.50;5113404;28;20063;-69
2023/08/29 05:52:19;;;;;;;9.80;7.20;;;;;;;13.83;100.00;99627.19;5114949;28;20036;-69
2023/08/29 05:54:45;;;;;;;8.43;6.68;;;;;;;13.85;100.00;99630.47;5114902;28;20495;-69
2023/08/29 05:57:10;;;;;;;11.13;7.28;;;;;;;13.86;100.00;99632.09;5114722;28;20438;-69
2023/08/29 05:59:36;;;;;;;9.13;6.32;;;;;;;13.90;100.00;99635.19;5114485;28;20047;-69
2023/08/29 06:02:03;;;;;;;9.68;7.45;;;;;;;13.90;100.00;99624.50;5114728;27;20039;-69
2023/08/29 06:04:28;;;;;;;11.63;7.70;;;;;;;13.94;100.00;99631.06;5114741;28;20158;-69
2023/08/29 06:06:54;;;;;;;9.75;7.03;;;;;;;13.94;100.00;99628.38;5114663;28;20368;-68
2023/08/29 06:09:19;;;;;;;11.15;6.70;;;;;;;13.95;100.00;99636.19;5114407;28;20043;-68
2023/08/29 06:11:45;;;;;;;13.15;8.55;;;;;;;13.94;100.00;99626.53;5114726;27;20036;-69
2023/08/29 06:14:11;;;;;;;9.43;8.10;;;;;;;13.93;100.00;99632.91;5114491;28;20040;-68
2023/08/29 06:16:36;;;;;;;14.25;7.75;;;;;;;13.98;100.00;99630.44;5105750;28;20054;-68
2023/08/29 06:19:02;;;;;;;9.65;7.93;;;;;;;14.02;100.00;99639.69;5093350;28;20120;-68
2023/08/29 06:21:27;;;;;;;11.55;8.18;;;;;;;14.05;100.00;99636.59;5094006;28;20502;-68
2023/08/29 06:23:52;;;;;;;15.23;8.35;;;;;;;14.10;100.00;99639.47;5094059;28;20042;-69
2023/08/29 06:26:18;;;;;;;9.30;7.75;;;;;;;14.10;100.00;99636.78;5093932;28;20052;-69
2023/08/29 06:28:43;;;;;;;10.95;7.93;;;;;;;14.17;100.00;99636.75;5093792;28;20684;-69
2023/08/29 06:31:09;;;;;;;11.85;7.95;;;;;;;14.17;100.00;99647.47;5093644;28;20050;-69
2023/08/29 06:33:35;;;;;;;11.20;7.15;;;;;;;14.19;100.00;99642.72;5093838;28;20043;-68
2023/08/29 06:36:00;;;;;;;11.25;8.02;;;;;;;14.19;100.00;99647.25;5093781;28;20173;-68
2023/08/29 06:38:26;;;;;;;11.32;7.53;;;;;;;14.25;100.00;99651.78;5093720;28;20040;-69
2023/08/29 06:40:56;;;;;;;11.73;7.18;;;;;;;14.28;100.00;99649.50;5093393;28;20038;-68
2023/08/29 06:43:22;;;;;;;10.38;7.82;;;;;;;14.31;100.00;99650.94;5093276;28;20063;-68
2023/08/29 06:45:47;;;;;;;10.05;7.43;;;;;;;14.34;100.00;99647.81;5092827;28;20024;-68
2023/08/29 06:48:13;;;;;;;10.68;6.93;;;;;;;14.39;100.00;99659.53;5093477;28;20448;-69
2023/08/29 06:50:38;;;;;;;9.10;7.28;;;;;;;14.45;100.00;99659.72;5093213;28;20028;-69
2023/08/29 06:53:04;;;;;;;9.15;7.30;;;;;;;14.48;100.00;99662.84;5093392;28;20750;-69
2023/08/29 06:55:32;;;;;;;10.88;7.43;;;;;;;14.53;100.00;99659.53;5093695;28;20050;-69
2023/08/29 06:57:57;;;;;;;8.70;7.32;;;;;;;14.57;100.00;99655.38;5093238;28;20169;-69
2023/08/29 07:00:23;;;;;;;12.15;7.40;;;;;;;14.60;100.00;99671.84;5092954;28;20497;-68
2023/08/29 07:02:49;;;;;;;10.68;7.30;;;;;;;14.66;100.00;99662.97;5093403;28;20043;-67
2023/08/29 07:05:15;;;;;;;9.95;7.13;;;;;;;14.72;100.00;99668.50;5093100;28;20036;-68
2023/08/29 07:07:40;;;;;;;10.02;7.45;;;;;;;14.75;100.00;99671.59;5093150;28;20035;-68
2023/08/29 07:10:06;;;;;;;11.20;6.72;;;;;;;14.81;100.00;99672.59;5093070;28;20044;-68
2023/08/29 07:12:32;;;;;;;8.57;6.65;;;;;;;14.82;100.00;99671.56;5093030;28;20028;-68
2023/08/29 07:14:59;;;;;;;10.10;7.85;;;;;;;14.92;100.00;99666.53;5093028;28;20068;-68
2023/08/29 07:17:24;;;;;;;8.68;6.60;;;;;;;14.93;100.00;99666.34;5092907;28;20040;-69
2023/08/29 07:19:49;;;;;;;12.48;7.75;;;;;;;14.98;100.00;99671.03;5088843;28;20038;-68
2023/08/29 07:22:16;;;;;;;8.65;6.85;;;;;;;15.02;100.00;99674.94;5092583;28;20437;-68
2023/08/29 07:24:42;;;;;;;10.67;6.70;;;;;;;15.08;100.00;99681.31;5092945;28;20114;-68
2023/08/29 07:27:07;;;;;;;9.02;6.63;;;;;;;15.10;100.00;99677.38;5092707;28;20366;-68
2023/08/29 07:29:33;;;;;;;9.75;6.32;;;;;;;15.21;100.00;99686.59;5092558;28;20071;-68
2023/08/29 07:31:58;;;;;;;10.68;6.15;;;;;;;15.25;100.00;99678.91;5092723;28;20036;-68
2023/08/29 07:34:24;;;;;;;7.28;5.80;;;;;;;15.34;100.00;99694.53;5092644;28;20131;-69
2023/08/29 07:36:49;;;;;;;7.07;6.30;;;;;;;15.43;100.00;99687.84;5092571;28;20100;-67
2023/08/29 07:39:18;;;;;;;10.55;6.97;;;;;;;15.39;100.00;99685.84;5092340;28;20122;-67
2023/08/29 07:41:47;;;;;;;11.15;6.03;;;;;;;15.52;100.00;99690.25;5092368;28;20555;-67
2023/08/29 07:44:12;;;;;;;9.88;6.40;;;;;;;15.56;100.00;99695.00;5092479;28;20036;-67
2023/08/29 07:46:38;;;;;;;8.60;5.70;;;;;;;15.58;100.00;99700.13;5092398;28;20034;-67
2023/08/29 07:49:10;;;;;;;8.52;6.00;;;;;;;15.64;100.00;99705.47;5090199;28;20127;-67
2023/08/29 07:51:35;;;;;;;8.40;5.20;;;;;;;15.59;100.00;99699.13;5079426;28;20032;-67
2023/08/29 07:54:01;;;;;;;7.05;5.75;;;;;;;15.66;100.00;99705.28;5079722;28;20110;-67
2023/08/29 07:56:26;;;;;;;5.82;4.93;;;;;;;15.69;100.00;99702.97;5082921;28;20123;-67
2023/08/29 07:58:52;;;;;;;6.50;5.25;;;;;;;15.75;100.00;99703.94;5080886;28;20119;-67
2023/08/29 08:01:17;;;;;;;7.65;6.00;;;;;;;15.76;100.00;99710.97;5084544;28;20023;-67
2023/08/29 08:03:43;;;;;;;7.43;5.45;;;;;;;15.82;100.00;99701.19;5079661;28;20032;-68
2023/08/29 08:06:09;;;;;;;5.65;4.72;;;;;;;15.84;100.00;99699.94;5083402;28;20416;-67
2023/08/29 08:08:34;;;;;;;5.78;4.82;;;;;;;15.87;100.00;99706.75;5068332;28;20044;-68
2023/08/29 08:11:00;;;;;;;7.25;4.80;;;;;;;15.94;100.00;99702.13;5091362;28;20036;-67
2023/08/29 08:13:25;;;;;;;8.18;5.35;;;;;;;15.92;100.00;99701.53;5083470;28;20093;-67
2023/08/29 08:15:51;;;;;;;8.85;5.10;;;;;;;15.96;100.00;99706.22;5084111;28;20482;-67
2023/08/29 08:18:16;;;;;;;7.10;5.72;;;;;;;15.98;100.00;99709.53;5091902;28;20142;-67
2023/08/29 08:20:42;;;;;;;6.28;5.32;;;;;;;16.03;100.00;99711.53;5091758;28;20024;-67
2023/08/29 08:23:07;;;;;;;6.50;5.30;;;;;;;16.05;100.00;99714.84;5091610;28;20405;-67
2023/08/29 08:25:33;;;;;;;6.03;5.00;;;;;;;16.04;100.00;99715.03;5091834;28;20043;-67
2023/08/29 08:27:59;;;;;;;7.68;5.22;;;;;;;16.09;100.00;99716.03;5091906;28;20047;-67
2023/08/29 08:30:24;;;;;;;13.15;5.90;;;;;;;16.09;100.00;99710.66;5091626;28;20028;-67
2023/08/29 08:32:49;;;;;;;5.55;4.55;;;;;;;16.11;100.00;99713.13;5091878;28;20040;-67
2023/08/29 08:35:15;;;;;;;6.15;4.72;;;;;;;16.11;100.00;99715.81;5091866;28;20038;-67
2023/08/29 08:37:40;;;;;;;6.20;4.45;;;;;;;16.13;100.00;99714.53;5091858;28;20390;-67
2023/08/29 08:40:09;;;;;;;5.20;4.13;;;;;;;16.20;100.00;99720.66;5091590;28;20062;-67
2023/08/29 08:42:37;;;;;;;5.13;4.28;;;;;;;16.29;100.00;99718.50;5091745;28;20036;-67
2023/08/29 08:45:05;;;;;;;;;;;;;;;16.38;100.00;99719.06;5092343;28;20402;-67
2023/08/29 08:47:33;;;;;;;4.80;4.30;;;;;;;16.43;100.00;99719.19;5091709;28;19912;-67
2023/08/29 08:49:58;;;;;;;5.32;4.25;;;;;;;16.54;100.00;99727.31;5091480;28;20059;-67
2023/08/29 08:52:24;;;;;;;4.97;3.95;;;;;;;16.61;100.00;99731.81;5091543;28;20040;-67
2023/08/29 08:54:49;;;;;;;6.05;4.80;;;;;;;16.63;100.00;99730.56;5091661;28;20118;-67
2023/08/29 08:57:15;;;;;;;6.90;4.40;;;;;;;16.68;100.00;99732.53;5091614;28;20032;-67
2023/08/29 08:59:41;;;;;;;6.68;5.20;;;;;;;16.73;100.00;99733.53;5091445;28;20126;-67
2023/08/29 09:02:12;;;;;;;5.85;4.30;;;;;;;16.76;100.00;99724.22;5091658;28;20452;-67
2023/08/29 09:04:37;;;;;;;6.78;4.72;;;;;;;16.74;100.00;99735.19;5091511;28;20028;-67
2023/08/29 09:07:03;;;;;;;5.93;5.10;;;;;;;16.78;100.00;99727.50;5091565;28;20043;-67
2023/08/29 09:09:28;;;;;;;9.32;5.10;;;;;;;16.87;100.00;99726.13;5095128;28;20043;-67
2023/08/29 09:11:56;;;;;;;6.95;5.38;;;;;;;16.85;100.00;99722.84;5095334;28;20036;-67
2023/08/29 09:14:23;;;;;;;5.95;5.28;;;;;;;16.88;100.00;99722.38;5095343;28;20518;-67
2023/08/29 09:17:04;;;;;;;6.13;5.05;;;;;;;16.98;100.00;99725.38;5095201;28;20053;-67
2023/08/29 09:19:33;;;;;;;7.53;4.90;;;;;;;17.03;100.00;99716.63;5094995;28;20032;-67
2023/08/29 09:21:59;;;;;;;6.72;5.47;;;;;;;17.12;100.00;99725.19;5095105;28;20036;-67
2023/08/29 09:24:35;;;;;;;6.97;4.90;;;;;;;17.18;100.00;99727.78;5095123;28;20046;-68
2023/08/29 09:27:06;;;;;;;8.20;5.97;;;;;;;17.15;100.00;99728.25;5095040;28;20040;-67
2023/08/29 09:29:33;;;;;;;5.97;5.13;;;;;;;17.14;100.00;99733.84;5094876;28;20522;-67
2023/08/29 09:31:59;;;;;;;5.65;5.07;;;;;;;17.15;100.00;99730.94;5094969;28;20032;-67
2023/08/29 09:34:31;;;;;;;7.10;5.07;;;;;;;17.20;100.00;99735.63;5094992;28;20155;-67
2023/08/29 09:36:58;;;;;;;6.88;5.15;;;;;;;17.25;100.00;99733.06;5094804;28;20502;-65
2023/08/29 09:39:23;;;;;;;5.10;4.60;;;;;;;17.26;100.00;99726.63;5094539;28;20031;-67
2023/08/29 09:42:03;;;;;;;6.47;5.07;;;;;;;17.32;100.00;99731.09;5095098;28;20566;-67
2023/08/29 09:44:29;;;;;;;5.82;4.88;;;;;;;17.35;100.00;99734.16;5094711;28;20044;-67
2023/08/29 09:46:55;;;;;;;8.43;5.15;;;;;;;17.50;100.00;99722.16;5094561;28;20032;-67
2023/08/29 09:49:20;;;;;;;5.80;4.60;;;;;;;17.60;100.00;99725.91;5094281;28;20040;-67
2023/08/29 09:51:50;;;;;;;6.10;4.28;;;;;;;17.72;100.00;99728.63;5094527;28;20048;-67
2023/08/29 09:54:19;;;;;;;8.63;3.70;;;;;;;17.87;100.00;99734.41;5094480;28;20097;-67
2023/08/29 09:56:44;;;;;;;5.38;3.78;;;;;;;18.07;100.00;99725.97;5094445;28;20056;-67
2023/08/29 09:59:12;;;;;;;7.43;4.68;;;;;;;18.20;100.00;99729.50;5094203;28;20066;-68
2023/08/29 10:01:40;;;;;;;;;;;;;;;18.19;97.85;99723.25;5087680;28;20063;-68
2023/08/29 10:04:09;;;;;;;6.45;4.88;;;;;;;18.24;100.00;99722.56;5094148;28;19916;-67
2023/08/29 10:06:36;;;;;;;5.13;4.63;;;;;;;18.26;100.00;99724.00;5094017;28;20040;-66
2023/08/29 10:09:02;;;;;;;5.05;4.55;;;;;;;18.26;100.00;99723.16;5093993;28;20039;-66
2023/08/29 10:11:29;;;;;;;4.60;4.20;;;;;;;18.38;99.02;99719.38;5094108;28;20043;-66
2023/08/29 10:13:55;;;;;;;5.05;4.53;;;;;;;18.36;96.53;99728.75;5094154;28;20040;-67
2023/08/29 10:16:21;;;;;;;5.97;4.68;;;;;;;18.42;95.67;99727.81;5094072;28;20521;-68
2023/08/29 10:18:48;;;;;;;5.72;4.63;;;;;;;18.42;98.30;99720.53;5093895;28;20036;-68
2023/08/29 10:21:15;;;;;;;5.32;4.03;;;;;;;18.58;97.63;99726.25;5093737;28;20036;-67
2023/08/29 10:23:41;;;;;;;5.68;4.32;;;;;;;18.64;95.48;99719.91;5094068;28;20390;-67
2023/08/29 10:26:07;;;;;;;6.40;4.90;;;;;;;18.58;93.09;99721.72;5093888;28;20040;-67
2023/08/29 10:28:33;;;;;;;4.50;3.97;;;;;;;18.68;95.56;99721.94;5093791;28;20040;-67
2023/08/29 10:31:04;;;;;;;4.93;3.97;;;;;;;18.73;96.11;99723.09;5092340;28;20117;-67
2023/08/29 10:33:31;;;;;;;6.55;4.60;;;;;;;18.76;92.86;99722.63;5093793;28;20032;-67
2023/08/29 10:35:57;;;;;;;4.65;3.80;;;;;;;18.94;89.65;99717.84;5093766;28;20047;-67
2023/08/29 10:38:25;;;;;;;7.13;4.78;;;;;;;19.00;87.50;99710.69;5093608;28;20036;-68
2023/08/29 10:41:02;;;;;;;5.13;4.10;;;;;;;19.06;86.68;99720.50;5093388;28;20032;-67
2023/08/29 10:43:28;;;;;;;5.85;3.90;;;;;;;19.13;92.62;99713.09;5092557;28;20043;-68
2023/08/29 10:45:53;;;;;;;7.88;4.72;;;;;;;19.18;86.87;99715.88;5093521;28;20028;-67
2023/08/29 10:48:20;;;;;;;5.22;4.72;;;;;;;19.28;81.58;99717.13;5093493;28;20495;-68
2023/08/29 10:51:07;;;;;;;5.45;3.75;;;;;;;19.48;83.98;99706.66;5093120;28;20137;-67
2023/08/29 10:53:40;;;;;;;4.15;3.70;;;;;;;19.47;84.95;99705.84;5093290;28;20496;-67
2023/08/29 10:56:09;;;;;;;4.00;3.60;;;;;;;19.70;85.26;99704.91;5093321;28;20032;-68
2023/08/29 10:58:38;;;;;;;3.80;3.40;;;;;;;19.87;82.12;99701.38;5093257;28;20092;-67
2023/08/29 11:01:05;;;;;;;5.95;3.78;;;;;;;19.97;78.31;99698.84;5093107;28;20040;-67
2023/08/29 11:03:50;;;;;;;4.93;3.63;;;;;;;20.25;79.41;99693.28;5093134;28;20036;-67
2023/08/29 11:06:43;;;;;;;4.53;3.70;;;;;;;20.36;78.00;99690.72;5093113;28;20046;-67
2023/08/29 11:09:16;;;;;;;4.75;3.00;;;;;;;20.61;77.87;99691.09;5088693;28;20070;-67
2023/08/29 11:11:42;;;;;;;4.15;3.10;;;;;;;20.73;75.65;99678.22;5093036;28;20047;-67
2023/08/29 11:14:08;;;;;;;3.15;2.70;;;;;;;21.01;76.25;99669.06;5092972;28;20391;-67
2023/08/29 11:16:37;;;;;;;3.90;3.28;;;;;;;21.07;74.93;99678.88;5092836;28;20036;-67
2023/08/29 11:19:11;;;;;;;4.72;2.95;;;;;;;21.34;74.80;99669.94;5092759;28;20113;-68
2023/08/29 11:21:37;;;;;;;3.85;3.08;;;;;;;21.34;71.98;99673.47;5092780;28;20024;-67
2023/08/29 11:24:05;;;;;;;3.95;3.10;;;;;;;21.47;73.81;99665.97;5092845;28;20480;-67
2023/08/29 11:26:37;;;;;;;6.45;3.38;;;;;;;21.38;69.22;99666.44;5092771;28;20036;-67
2023/08/29 11:29:05;;;;;;;4.13;3.42;;;;;;;20.95;68.28;99671.97;5092600;28;20032;-67
2023/08/29 11:31:41;;;;;;;3.00;2.70;;;;;;;21.16;70.77;99665.66;5092066;28;20036;-67
2023/08/29 11:34:18;;;;;;;3.22;2.92;;;;;;;21.01;71.32;99657.41;5092776;28;20039;-67
2023/08/29 11:36:50;;;;;;;3.95;3.30;;;;;;;20.69;71.99;99654.63;5092580;28;20040;-67
2023/08/29 11:39:18;;;;;;;4.45;3.15;;;;;;;20.66;71.44;99650.53;5092168;28;20085;-67
2023/08/29 11:41:45;;;;;;;2.97;2.08;;;;;;;20.83;71.88;99640.44;5092508;28;20028;-67
2023/08/29 11:44:10;;;;;;;3.40;1.80;;;;;;;20.87;71.18;99648.88;5092320;28;20140;-67
2023/08/29 11:46:36;;;;;;;4.25;1.80;;;;;;;21.18;73.14;99647.25;5081451;28;20533;-67
2023/08/29 11:49:11;;;;;;;2.50;1.70;;;;;;;21.25;70.21;99647.06;5083117;28;20032;-67
2023/08/29 11:51:37;;;;;;;2.20;1.75;;;;;;;21.42;66.79;99639.66;5083257;28;20098;-67
2023/08/29 11:54:03;;;;;;;3.25;2.30;;;;;;;21.16;67.76;99627.75;5063482;28;20471;-67
2023/08/29 11:56:28;;;;;;;2.38;1.88;;;;;;;20.89;66.47;99646.72;5071058;28;20040;-67
2023/08/29 11:58:56;;;;;;;2.63;2.17;;;;;;;20.96;66.68;99647.34;5073139;28;20036;-67
2023/08/29 12:01:22;;;;;;;1.80;1.70;;;;;;;20.97;68.54;99646.25;5065892;28;20037;-67
2023/08/29 12:03:49;;;;;;;3.15;1.67;;;;;;;20.71;71.98;99653.31;5079613;28;20032;-67
2023/08/29 12:06:15;;;;;;;2.10;1.70;;;;;;;20.83;73.67;99658.56;5082680;28;20387;-67
2023/08/29 12:08:43;;;;;;;4.00;1.80;;;;;;;20.72;74.71;99663.06;5081974;28;20036;-67
2023/08/29 12:11:10;;;;;;;4.22;2.42;;;;;;;20.63;74.52;99656.47;5080608;28;20074;-66
2023/08/29 12:13:36;;;;;;;3.25;2.70;;;;;;;20.47;78.57;99660.03;5082390;28;20058;-66
2023/08/29 12:16:02;;;;;;;3.13;2.50;;;;;;;20.20;75.30;99654.53;5082121;28;20510;-65
2023/08/29 12:18:28;;;;;;;2.63;2.30;;;;;;;20.08;78.83;99665.47;5080489;28;20047;-65
2023/08/29 12:21:17;;;;;;;4.18;2.10;;;;;;;20.00;78.23;99658.59;5081936;28;20032;-66
2023/08/29 12:23:44;;;;;;;3.50;2.30;;;;;;;19.98;80.00;99663.44;5081951;28;20036;-65
2023/08/29 12:26:12;;;;;;;3.85;2.75;;;;;;;20.04;79.15;99664.34;5080214;28;20398;-66
2023/08/29 12:28:39;;;;;;;3.38;2.83;;;;;;;20.03;78.52;99658.13;5081169;28;20048;-66
2023/08/29 12:31:06;;;;;;;3.25;2.50;;;;;;;19.96;75.50;99654.78;5079269;28;20499;-67
2023/08/29 12:33:32;;;;;;;;;;;;;;;19.96;74.18;99656.66;5082913;28;20024;-66
2023/08/29 12:35:58;;;;;;;3.65;2.40;;;;;;;20.01;73.48;99656.72;5081024;28;19927;-65
2023/08/29 12:38:26;;;;;;;2.50;1.92;;;;;;;20.09;77.30;99659.00;5065628;28;20046;-66
2023/08/29 12:40:52;;;;;;;3.78;2.13;;;;;;;20.18;74.68;99660.19;5080002;28;20036;-66
2023/08/29 12:43:17;;;;;;;2.47;2.10;;;;;;;20.27;74.28;99652.47;5083857;28;20043;-66
2023/08/29 12:45:44;;;;;;;3.50;2.20;;;;;;;20.24;70.04;99655.69;5052949;28;20036;-66
2023/08/29 12:48:10;;;;;;;3.60;2.03;;;;;;;20.08;71.78;99654.66;5084444;28;20131;-64
2023/08/29 12:50:36;;;;;;;2.72;1.83;;;;;;;20.16;75.01;99651.53;5044076;28;20077;-67
2023/08/29 12:53:01;;;;;;;2.63;1.73;;;;;;;20.23;74.13;99652.16;5089581;28;20453;-67
2023/08/29 12:55:27;;;;;;;2.40;2.00;;;;;;;20.01;70.94;99648.59;5084006;28;20063;-66
2023/08/29 12:57:52;;;;;;;1.90;1.70;;;;;;;20.20;71.38;99644.53;5085870;28;20479;-66
2023/08/29 13:00:18;;;;;;;2.47;1.80;;;;;;;20.18;73.30;99645.88;5084938;28;20040;-69
2023/08/29 13:02:44;;;;;;;2.60;2.10;;;;;;;20.05;70.71;99647.06;5083023;28;20024;-68
2023/08/29 13:05:10;;;;;;;2.53;2.10;;;;;;;20.13;72.01;99649.31;5084053;28;20039;-68
2023/08/29 13:07:35;;;;;;;2.50;1.92;;;;;;;20.19;70.51;99645.63;5088456;28;20027;-68
2023/08/29 13:10:03;;;;;;;3.38;2.03;;;;;;;20.35;72.21;99643.94;5085703;28;20424;-69
2023/08/29 13:12:29;;;;;;;1.70;1.60;;;;;;;20.42;63.21;99638.34;5085753;28;20040;-69
2023/08/29 13:14:54;;;;;;;1.67;1.30;;;;;;;20.50;62.40;99629.81;5083724;28;20111;-69
2023/08/29 13:17:20;;;;;;;3.30;1.65;;;;;;;20.52;62.04;99627.66;5085103;28;20055;-68
2023/08/29 13:19:45;;;;;;;2.85;1.90;;;;;;;20.75;64.90;99632.78;5068501;28;20036;-68
2023/08/29 13:22:11;;;;;;;1.83;1.73;;;;;;;20.73;72.62;99628.69;5083565;28;20039;-67
2023/08/29 13:24:36;;;;;;;3.30;1.88;;;;;;;20.79;68.30;99633.06;5085669;28;20036;-68
2023/08/29 13:27:02;;;;;;;2.35;2.00;;;;;;;20.92;69.89;99635.38;5067513;28;20036;-68
2023/08/29 13:29:27;;;;;;;1.75;1.63;;;;;;;21.01;70.66;99633.03;5083655;28;20039;-67
2023/08/29 13:31:53;;;;;;;1.98;1.75;;;;;;;21.00;70.17;99626.00;5085425;28;20383;-68
2023/08/29 13:34:19;;;;;;;2.83;1.50;;;;;;;20.91;72.07;99614.00;5050129;28;20039;-69
2023/08/29 13:36:44;;;;;;;3.50;1.77;;;;;;;21.06;70.72;99630.38;5092062;28;20036;-68
2023/08/29 13:39:09;;;;;;;4.20;1.90;;;;;;;20.89;72.37;99630.50;5094690;28;20051;-68
2023/08/29 13:41:35;;;;;;;3.78;1.65;;;;;;;20.98;72.65;99625.41;5095076;28;20085;-68
2023/08/29 13:44:00;;;;;;;3.03;1.70;;;;;;;20.85;69.08;99611.22;5093708;28;20050;-68
2023/08/29 13:46:26;;;;;;;2.22;1.70;;;;;;;20.90;71.40;99625.88;5094714;28;20036;-68
2023/08/29 13:48:52;;;;;;;2.63;1.95;;;;;;;20.83;70.43;99613.38;5094645;28;20394;-68
2023/08/29 13:51:17;;;;;;;2.35;1.70;;;;;;;20.91;73.10;99614.81;5094425;28;20051;-68
2023/08/29 13:53:43;;;;;;;3.25;1.70;;;;;;;20.76;70.98;99611.94;5094197;28;20042;-68
2023/08/29 13:56:08;;;;;;;2.10;1.63;;;;;;;20.82;71.00;99617.16;5094525;28;20529;-69
2023/08/29 13:58:33;;;;;;;2.53;1.77;;;;;;;20.98;74.39;99625.41;5094424;28;20036;-69
2023/08/29 14:00:59;;;;;;;3.03;1.50;;;;;;;21.01;70.51;99628.44;5094405;28;20448;-68
2023/08/29 14:03:24;;;;;;;3.30;1.70;;;;;;;21.03;73.06;99623.59;5094485;28;20458;-68
2023/08/29 14:05:50;;;;;;;3.13;1.73;;;;;;;20.92;70.15;99626.44;5094405;28;20062;-68
2023/08/29 14:08:16;;;;;;;2.00;1.80;;;;;;;20.70;71.34;99630.03;5094425;28;20036;-67
2023/08/29 14:10:42;;;;;;;2.88;1.65;;;;;;;20.70;73.13;99619.19;5094019;28;20498;-71
2023/08/29 14:13:08;;;;;;;2.05;1.80;;;;;;;20.52;76.20;99617.66;5094225;28;20067;-69
2023/08/29 14:15:34;;;;;;;2.90;2.05;;;;;;;20.55;76.41;99624.47;5094115;28;20044;-68
2023/08/29 14:17:59;;;;;;;2.78;2.10;;;;;;;20.57;75.88;99623.13;5094049;28;20051;-69
2023/08/29 14:20:24;;;;;;;4.57;2.20;;;;;;;20.66;76.20;99619.94;5093844;28;20044;-68
2023/08/29 14:22:50;;;;;;;2.47;2.00;;;;;;;20.56;79.80;99624.19;5094069;28;20036;-68
2023/08/29 14:25:15;;;;;;;2.63;2.42;;;;;;;20.61;79.35;99619.91;5094000;28;20036;-69
2023/08/29 14:27:41;;;;;;;4.43;2.67;;;;;;;20.72;80.12;99619.75;5093957;28;20399;-69
2023/08/29 14:30:07;;;;;;;2.50;2.30;;;;;;;20.68;80.03;99620.53;5093683;28;20047;-69
2023/08/29 14:32:32;;;;;;;3.88;2.08;;;;;;;20.55;79.75;99617.16;5093738;28;20036;-69
2023/08/29 14:34:58;;;;;;;2.20;2.00;;;;;;;20.51;77.44;99618.72;5093828;28;20043;-68
2023/08/29 14:37:23;;;;;;;3.88;2.17;;;;;;;20.46;75.41;99617.84;5093694;28;20431;-68
2023/08/29 14:39:49;;;;;;;2.58;2.17;;;;;;;20.48;76.67;99627.34;5093465;28;20067;-69
2023/08/29 14:42:15;;;;;;;3.45;2.30;;;;;;;20.42;76.22;99632.94;5093545;28;20043;-68
2023/08/29 14:44:40;;;;;;;2.33;2.13;;;;;;;20.32;73.70;99637.13;5093703;28;20083;-69
2023/08/29 14:47:07;;;;;;;2.80;1.83;;;;;;;20.30;76.88;99631.16;5093504;28;20123;-69
2023/08/29 14:49:32;;;;;;;2.90;1.90;;;;;;;20.42;76.23;99628.34;5093230;28;20047;-69
2023/08/29 14:51:58;;;;;;;1.85;1.60;;;;;;;20.39;73.16;99633.41;5093328;28;20048;-69
2023/08/29 14:54:23;;;;;;;4.22;1.88;;;;;;;20.19;74.16;99629.38;5093434;28;20071;-69
2023/08/29 14:56:48;;;;;;;3.08;1.80;;;;;;;20.09;74.77;99636.56;5093241;28;20169;-68
2023/08/29 14:59:14;;;;;;;2.67;2.00;;;;;;;20.09;74.45;99642.78;5092994;28;20048;-69
2023/08/29 15:01:41;;;;;;;2.28;1.95;;;;;;;20.00;74.11;99636.16;5093220;28;20065;-68
2023/08/29 15:04:08;;;;;;;2.28;1.98;;;;;;;20.01;74.01;99635.09;5093272;28;20093;-69
2023/08/29 15:06:34;;;;;;;2.28;1.95;;;;;;;19.81;76.98;99634.81;5092409;28;20036;-68
2023/08/29 15:09:00;;;;;;;2.50;1.70;;;;;;;19.83;79.31;99638.09;5093048;28;20052;-68
2023/08/29 15:11:25;;;;;;;2.85;1.95;;;;;;;19.86;79.73;99637.59;5092997;28;20118;-69
2023/08/29 15:13:51;;;;;;;4.05;1.77;;;;;;;19.77;81.82;99634.50;5084973;28;20074;-69
2023/08/29 15:16:16;;;;;;;2.05;1.60;;;;;;;19.79;83.35;99641.28;5092020;28;20096;-69
2023/08/29 15:18:42;;;;;;;3.83;1.90;;;;;;;19.82;83.51;99644.53;5082208;28;20044;-69
2023/08/29 15:21:08;;;;;;;3.15;1.90;;;;;;;19.70;85.00;99639.25;5072290;28;20051;-68
2023/08/29 15:23:34;;;;;;;1.95;1.63;;;;;;;19.72;83.34;99643.34;5072515;28;20043;-69
2023/08/29 15:26:03;;;;;;;2.25;1.63;;;;;;;19.62;83.68;99645.06;5072404;28;20064;-69
2023/08/29 15:28:29;;;;;;;1.80;1.70;;;;;;;19.65;84.16;99640.00;5072412;28;20197;-70
2023/08/29 15:30:58;;;;;;;2.13;1.50;;;;;;;19.69;83.33;99643.84;5072064;28;20120;-70
2023/08/29 15:33:24;;;;;;;3.22;1.75;;;;;;;19.58;82.45;99644.75;5072348;28;20071;-70
2023/08/29 15:35:49;;;;;;;2.20;1.60;;;;;;;19.52;85.74;99641.13;5072294;28;20166;-70
2023/08/29 15:38:15;;;;;;;3.25;1.60;;;;;;;19.47;82.92;99637.50;5072230;28;20037;-69
2023/08/29 15:40:42;;;;;;;2.38;1.60;;;;;;;19.54;83.69;99638.16;5071988;28;20048;-69
2023/08/29 15:43:09;;;;;;;2.17;1.40;;;;;;;19.44;84.96;99640.72;5072587;28;20372;-69
2023/08/29 15:45:35;;;;;;;1.75;1.48;;;;;;;19.37;86.30;99640.06;5072124;28;20043;-69
2023/08/29 15:48:01;;;;;;;3.47;1.50;;;;;;;19.33;83.50;99647.81;5072806;28;20081;-68